Time;durP1;ratioP1;P1;durP2;ratioP2;P2;SDS_P1;SDS_P2;PMS_P1;PMS_P2;Temp;Humidity;BMP_temperature;BMP_pressure;BME280_temperature;BME280_humidity;BME280_pressure;Samples;Min_cycle;Max_cycle;Signal;HPM_P1;HPM_P2
2021/06/22 00:01:04;;;;;;;0.10;0.10;;;;;;;14.20;42.55;98461.97;5076760;28;20036;-59
2021/06/22 00:03:30;;;;;;;0.10;0.10;;;;;;;14.27;42.46;98460.94;5095486;28;20459;-60
2021/06/22 00:05:56;;;;;;;0.35;0.35;;;;;;;14.56;42.06;98458.59;5076886;28;20123;-59
2021/06/22 00:08:22;;;;;;;0.85;0.63;;;;;;;14.90;41.43;98447.13;5076643;28;20070;-59
2021/06/22 00:10:48;;;;;;;0.30;0.17;;;;;;;15.08;41.27;98448.56;5095362;28;20107;-60
2021/06/22 00:13:14;;;;;;;0.10;0.10;;;;;;;15.01;41.37;98437.75;5095069;28;20073;-60
2021/06/22 00:15:40;;;;;;;0.20;0.20;;;;;;;14.98;41.58;98448.53;5094788;28;20115;-60
2021/06/22 00:18:06;;;;;;;0.10;0.10;;;;;;;14.97;41.61;98450.47;5095215;28;20035;-59
2021/06/22 00:20:32;;;;;;;0.10;0.10;;;;;;;15.02;41.85;98444.94;5076467;28;20035;-59
2021/06/22 00:22:58;;;;;;;0.10;0.10;;;;;;;15.19;41.49;98449.38;5094905;28;20070;-59
2021/06/22 00:25:25;;;;;;;0.15;0.15;;;;;;;15.34;41.07;98434.75;5094782;28;20024;-59
2021/06/22 00:27:51;;;;;;;0.20;0.20;;;;;;;15.51;41.01;98440.03;5094828;28;20484;-59
2021/06/22 00:30:18;;;;;;;0.20;0.20;;;;;;;15.62;41.06;98435.31;5094551;28;20119;-59
2021/06/22 00:32:44;;;;;;;0.17;0.17;;;;;;;15.64;40.99;98439.47;5094527;28;20031;-60
2021/06/22 00:35:11;;;;;;;0.17;0.17;;;;;;;15.66;41.19;98436.41;5094549;28;20032;-59
2021/06/22 00:37:38;;;;;;;0.20;0.20;;;;;;;15.60;41.52;98427.28;5094500;28;20036;-59
2021/06/22 00:40:05;;;;;;;0.75;0.30;;;;;;;15.55;41.42;98430.06;5094768;28;20157;-58
2021/06/22 00:42:30;;;;;;;0.10;0.10;;;;;;;15.56;41.50;98434.47;5075215;28;20378;-60
2021/06/22 00:44:58;;;;;;;0.10;0.10;;;;;;;15.58;41.73;98440.59;5075966;28;20039;-59
2021/06/22 00:47:26;;;;;;;0.47;0.47;;;;;;;15.65;41.62;98451.34;5094244;28;20046;-60
2021/06/22 00:49:52;;;;;;;0.10;0.10;;;;;;;15.73;41.59;98445.28;5094202;28;20030;-59
2021/06/22 00:52:27;;;;;;;0.10;0.10;;;;;;;15.83;41.24;98445.31;5094279;28;20036;-59
2021/06/22 00:54:55;;;;;;;0.35;0.32;;;;;;;15.95;41.44;98445.00;5075701;28;20031;-59
2021/06/22 00:57:21;;;;;;;0.20;0.20;;;;;;;16.06;40.96;98449.44;5094152;28;20035;-59
2021/06/22 00:59:47;;;;;;;0.20;0.20;;;;;;;16.08;41.06;98449.97;5076165;28;20028;-59
2021/06/22 01:02:13;;;;;;;0.10;0.10;;;;;;;16.10;41.48;98444.97;5075558;28;20488;-59
2021/06/22 01:04:39;;;;;;;0.10;0.10;;;;;;;17.86;38.33;98447.66;5094173;28;20028;-61
2021/06/22 01:07:06;;;;;;;0.43;0.43;;;;;;;20.59;34.17;98441.75;5093525;28;20077;-60
2021/06/22 01:09:32;;;;;;;0.10;0.10;;;;;;;23.05;31.32;98439.56;5093661;28;20067;-60
2021/06/22 01:12:00;;;;;;;0.10;0.10;;;;;;;25.00;28.85;98436.91;5093593;28;20535;-59
2021/06/22 01:14:27;;;;;;;0.10;0.10;;;;;;;26.55;27.87;98437.00;5093405;28;20073;-60
2021/06/22 01:16:54;;;;;;;0.20;0.20;;;;;;;27.80;26.76;98448.59;5075809;28;20024;-60
2021/06/22 01:19:20;;;;;;;0.10;0.10;;;;;;;28.89;26.18;98441.03;5074988;28;20512;-60
2021/06/22 01:21:46;;;;;;;0.10;0.10;;;;;;;29.86;25.76;98434.75;5093703;28;20028;-61
2021/06/22 01:24:18;;;;;;;0.10;0.10;;;;;;;30.66;25.42;98434.22;5093356;28;20092;-63
2021/06/22 01:26:48;;;;;;;0.20;0.20;;;;;;;31.34;24.94;98437.31;5093252;28;20035;-60
2021/06/22 01:29:15;;;;;;;0.10;0.10;;;;;;;31.18;25.80;98436.69;5074842;28;20128;-60
2021/06/22 01:31:41;;;;;;;0.00;0.00;;;;;;;31.23;25.94;98434.34;5093222;28;20555;-60
2021/06/22 01:34:07;;;;;;;0.10;0.10;;;;;;;31.40;26.09;98435.78;5093553;28;20031;-60
2021/06/22 01:36:34;;;;;;;0.10;0.10;;;;;;;31.82;25.72;98433.09;5093557;28;20368;-59
2021/06/22 01:39:01;;;;;;;0.00;0.00;;;;;;;32.65;24.98;98417.75;5092850;28;20043;-59
2021/06/22 01:41:27;;;;;;;0.10;0.10;;;;;;;33.45;24.44;98414.31;5093523;28;20028;-59
2021/06/22 01:43:53;;;;;;;0.00;0.00;;;;;;;34.18;24.17;98421.91;5093257;28;20034;-60
2021/06/22 01:46:19;;;;;;;0.00;0.00;;;;;;;34.86;23.75;98404.09;5093487;28;20032;-62
2021/06/22 01:48:45;;;;;;;0.10;0.10;;;;;;;35.17;23.43;98412.22;5093411;28;20028;-61
2021/06/22 01:51:11;;;;;;;0.00;0.00;;;;;;;35.35;23.73;98413.03;5074806;28;20024;-61
2021/06/22 01:53:37;;;;;;;0.10;0.10;;;;;;;34.86;24.34;98415.50;5093395;28;20039;-60
2021/06/22 01:56:03;;;;;;;0.45;0.22;;;;;;;34.92;24.45;98425.28;5092961;28;20028;-61
2021/06/22 01:58:29;;;;;;;0.10;0.10;;;;;;;35.02;24.32;98429.34;5092963;28;20035;-60
2021/06/22 02:00:58;;;;;;;0.00;0.00;;;;;;;35.66;23.70;98418.19;5092648;28;20092;-61
2021/06/22 02:03:28;;;;;;;0.10;0.10;;;;;;;36.67;23.24;98427.06;5074557;28;20035;-60
2021/06/22 02:05:54;;;;;;;0.10;0.10;;;;;;;37.45;22.56;98423.91;5092602;28;20031;-62
2021/06/22 02:08:20;;;;;;;0.00;0.00;;;;;;;37.85;22.20;98427.13;5093116;28;20098;-60
2021/06/22 02:10:49;;;;;;;0.10;0.10;;;;;;;38.19;21.82;98420.56;5093053;28;20184;-64
2021/06/22 02:13:16;;;;;;;0.10;0.10;;;;;;;38.58;21.76;98424.06;5092849;28;20024;-60
2021/06/22 02:15:43;;;;;;;0.00;0.00;;;;;;;39.17;21.34;98425.59;5093059;28;20517;-60
2021/06/22 02:18:08;;;;;;;0.00;0.00;;;;;;;39.48;21.45;98419.66;5093037;28;20517;-61
2021/06/22 02:20:37;;;;;;;0.03;0.03;;;;;;;39.74;21.20;98412.16;5093077;28;20028;-62
2021/06/22 02:23:04;;;;;;;0.10;0.10;;;;;;;39.97;21.15;98431.38;5074418;28;20070;-60
2021/06/22 02:25:30;;;;;;;0.20;0.20;;;;;;;40.16;21.12;98426.06;5090825;28;20043;-56
2021/06/22 02:28:08;;;;;;;0.05;0.05;;;;;;;39.84;21.39;98422.59;5091030;28;20401;-49
2021/06/22 02:30:36;;;;;;;0.10;0.10;;;;;;;40.15;21.49;98424.44;5092028;28;20085;-53
2021/06/22 02:33:02;;;;;;;0.03;0.03;;;;;;;40.48;21.02;98419.59;5092221;28;20032;-59
2021/06/22 02:35:28;;;;;;;0.10;0.10;;;;;;;40.78;20.68;98421.28;5092210;28;20031;-54
2021/06/22 02:37:54;;;;;;;0.08;0.08;;;;;;;40.51;21.08;98429.41;5092853;28;20163;-53
2021/06/22 02:40:21;;;;;;;0.10;0.10;;;;;;;40.81;20.71;98419.59;5092399;28;20497;-51
2021/06/22 02:42:47;;;;;;;0.17;0.17;;;;;;;41.31;20.37;98423.25;5074230;28;20028;-52
2021/06/22 02:45:14;;;;;;;0.20;0.20;;;;;;;41.79;19.79;98415.75;5057156;28;20028;-51
2021/06/22 02:47:40;;;;;;;0.10;0.10;;;;;;;42.39;19.46;98422.19;5057496;28;20039;-51
2021/06/22 02:50:07;;;;;;;0.32;0.32;;;;;;;42.82;19.19;98424.50;5074250;28;20411;-49
2021/06/22 02:52:32;;;;;;;0.10;0.10;;;;;;;43.06;18.97;98432.81;5074524;28;20024;-51
2021/06/22 02:54:58;;;;;;;0.10;0.10;;;;;;;43.16;19.01;98427.94;5092576;28;20030;-52
2021/06/22 02:57:24;;;;;;;0.15;0.15;;;;;;;43.19;19.17;98424.09;5092530;28;20036;-50
2021/06/22 02:59:50;;;;;;;0.10;0.10;;;;;;;43.39;18.84;98420.91;5092779;28;20036;-53
2021/06/22 03:02:15;;;;;;;0.40;0.40;;;;;;;43.51;18.90;98419.25;5092466;28;20073;-54
2021/06/22 03:04:41;;;;;;;0.10;0.10;;;;;;;43.57;18.62;98426.88;5057899;28;20105;-58
2021/06/22 03:07:07;;;;;;;0.28;0.28;;;;;;;43.58;19.01;98414.03;5096081;28;20036;-52
2021/06/22 03:09:33;;;;;;;0.10;0.10;;;;;;;43.72;18.60;98417.66;5095921;28;20028;-54
2021/06/22 03:11:59;;;;;;;0.13;0.13;;;;;;;43.72;19.03;98426.34;5095766;28;20028;-50
2021/06/22 03:14:25;;;;;;;0.30;0.30;;;;;;;43.57;18.86;98414.50;5095797;28;20115;-60
2021/06/22 03:16:52;;;;;;;0.45;0.45;;;;;;;43.59;18.83;98411.94;5096013;28;20024;-60
2021/06/22 03:19:19;;;;;;;0.20;0.20;;;;;;;43.80;18.96;98398.75;5095970;28;20393;-61
2021/06/22 03:21:46;;;;;;;1.05;0.28;;;;;;;43.98;18.33;98403.88;5096223;28;20554;-60
2021/06/22 03:24:13;;;;;;;0.10;0.10;;;;;;;43.73;19.15;98410.56;5095852;28;20020;-61
2021/06/22 03:26:39;;;;;;;0.50;0.50;;;;;;;43.77;18.71;98402.56;5096088;28;20036;-61
2021/06/22 03:29:05;;;;;;;0.57;0.40;;;;;;;43.96;18.59;98400.63;5095590;28;20035;-61
2021/06/22 03:31:33;;;;;;;0.47;0.45;;;;;;;44.05;18.72;98397.00;5077439;28;20024;-61
2021/06/22 03:33:59;;;;;;;0.40;0.40;;;;;;;44.19;18.29;98395.63;5095651;28;20036;-63
2021/06/22 03:36:25;;;;;;;0.10;0.10;;;;;;;44.36;18.68;98399.09;5095256;28;20039;-61
2021/06/22 03:38:51;;;;;;;0.20;0.20;;;;;;;44.61;17.86;98392.25;5095661;28;20376;-60
2021/06/22 03:41:17;;;;;;;6.07;0.65;;;;;;;44.83;18.22;98389.28;5077103;28;20036;-60
2021/06/22 03:43:43;;;;;;;0.10;0.10;;;;;;;45.09;17.87;98391.94;5076716;28;20030;-60
2021/06/22 03:46:09;;;;;;;0.20;0.20;;;;;;;45.32;17.20;98393.38;5095336;28;20397;-60
2021/06/22 03:48:35;;;;;;;0.35;0.35;;;;;;;45.61;17.07;98392.91;5094800;28;20093;-60
2021/06/22 03:51:01;;;;;;;0.20;0.20;;;;;;;45.33;17.36;98382.59;5095429;28;20458;-60
2021/06/22 03:53:27;;;;;;;0.40;0.40;;;;;;;44.15;18.63;98384.19;5095578;28;20573;-60
2021/06/22 03:55:53;;;;;;;0.10;0.10;;;;;;;43.46;18.91;98380.19;5095282;28;20031;-59
2021/06/22 03:58:19;;;;;;;0.65;0.30;;;;;;;41.73;20.76;98380.09;5076884;28;20032;-60
2021/06/22 04:00:45;;;;;;;0.57;0.28;;;;;;;40.27;21.73;98375.69;5076573;28;20066;-60
2021/06/22 04:03:14;;;;;;;0.65;0.30;;;;;;;39.93;22.07;98365.34;5094945;28;20055;-60
2021/06/22 04:05:40;;;;;;;0.45;0.45;;;;;;;40.75;21.11;98373.28;5095132;28;20071;-61
2021/06/22 04:08:06;;;;;;;0.10;0.10;;;;;;;41.83;19.80;98366.63;5076715;28;20043;-59
2021/06/22 04:10:32;;;;;;;0.10;0.10;;;;;;;42.80;18.84;98363.56;5094521;28;20508;-59
2021/06/22 04:12:58;;;;;;;0.10;0.10;;;;;;;43.64;18.19;98367.97;5094954;28;20036;-59
2021/06/22 04:15:24;;;;;;;0.10;0.10;;;;;;;44.14;17.67;98373.88;5076190;28;20020;-58
2021/06/22 04:17:50;;;;;;;0.10;0.10;;;;;;;44.59;17.24;98371.69;5093841;28;20032;-58
2021/06/22 04:20:18;;;;;;;0.35;0.35;;;;;;;44.95;17.58;98370.97;5090829;28;20032;-51
2021/06/22 04:22:44;;;;;;;2.05;0.45;;;;;;;45.03;16.90;98371.50;5076113;28;20077;-52
2021/06/22 04:25:10;;;;;;;0.40;0.40;;;;;;;45.16;17.01;98362.66;5094248;28;20440;-51
2021/06/22 04:27:36;;;;;;;0.20;0.20;;;;;;;45.40;16.78;98376.47;5093991;28;20039;-57
2021/06/22 04:30:04;;;;;;;0.20;0.20;;;;;;;45.50;17.18;98360.72;5094717;28;20504;-57
2021/06/22 04:32:30;;;;;;;0.40;0.22;;;;;;;45.79;17.19;98385.47;5095150;28;20055;-48
2021/06/22 04:34:56;;;;;;;0.30;0.30;;;;;;;45.78;17.08;98383.88;5093993;28;20493;-48
2021/06/22 04:37:22;;;;;;;0.40;0.38;;;;;;;45.56;17.08;98375.38;5075851;28;20047;-58
2021/06/22 04:39:48;;;;;;;0.77;0.43;;;;;;;45.49;17.35;98367.81;5076200;28;20024;-58
2021/06/22 04:42:14;;;;;;;0.17;0.17;;;;;;;45.42;17.29;98354.44;5094291;28;20093;-51
2021/06/22 04:44:40;;;;;;;0.10;0.10;;;;;;;45.47;17.40;98362.50;5094496;28;20035;-51
2021/06/22 04:47:06;;;;;;;0.20;0.20;;;;;;;45.59;17.36;98360.69;5075864;28;20044;-57
2021/06/22 04:49:32;;;;;;;1.95;0.25;;;;;;;45.75;16.85;98361.63;5094280;28;20538;-57
2021/06/22 04:51:58;;;;;;;0.35;0.30;;;;;;;45.73;17.43;98370.00;5094387;28;20051;-48
2021/06/22 04:54:24;;;;;;;0.30;0.30;;;;;;;45.59;17.14;98357.00;5094420;28;20473;-62
2021/06/22 04:56:50;;;;;;;0.28;0.28;;;;;;;45.88;16.77;98347.78;5094385;28;20444;-58
2021/06/22 04:59:17;;;;;;;0.65;0.30;;;;;;;46.18;17.00;98357.47;5093751;28;20036;-59
2021/06/22 05:01:43;;;;;;;0.77;0.60;;;;;;;46.24;16.96;98351.84;5093695;28;20038;-63
2021/06/22 05:04:08;;;;;;;0.13;0.13;;;;;;;46.08;17.20;98352.22;5094386;28;20380;-60
2021/06/22 05:06:34;;;;;;;0.40;0.40;;;;;;;45.86;17.25;98350.34;5094287;28;20039;-61
2021/06/22 05:09:00;;;;;;;0.20;0.20;;;;;;;45.97;16.93;98355.66;5094194;28;20417;-60
2021/06/22 05:11:29;;;;;;;0.45;0.45;;;;;;;46.08;16.64;98338.50;5093867;28;20040;-69
2021/06/22 05:13:56;;;;;;;0.10;0.10;;;;;;;46.09;16.89;98345.13;5094050;28;20032;-61
2021/06/22 05:16:22;;;;;;;0.20;0.20;;;;;;;46.04;17.04;98354.47;5075572;28;20086;-60
2021/06/22 05:18:49;;;;;;;0.30;0.30;;;;;;;45.87;16.83;98346.16;5075827;28;20031;-61
2021/06/22 05:21:15;;;;;;;0.52;0.30;;;;;;;45.87;17.37;98343.25;5075052;28;20493;-60
2021/06/22 05:23:41;;;;;;;1.85;0.35;;;;;;;45.99;16.81;98348.03;5074987;28;20036;-60
2021/06/22 05:26:07;;;;;;;0.50;0.50;;;;;;;46.10;17.21;98340.91;5093377;28;20056;-61
2021/06/22 05:28:33;;;;;;;0.50;0.50;;;;;;;45.87;17.33;98340.38;5091831;28;20028;-60
2021/06/22 05:30:59;;;;;;;0.25;0.25;;;;;;;45.79;17.19;98341.97;5093107;28;20412;-62
2021/06/22 05:33:24;;;;;;;0.57;0.57;;;;;;;46.20;16.68;98339.59;5099250;28;20030;-63
2021/06/22 05:35:50;;;;;;;1.85;0.82;;;;;;;45.67;16.98;98345.88;5114009;28;20423;-62
2021/06/22 05:38:16;;;;;;;0.30;0.30;;;;;;;44.58;18.07;98347.69;5095202;28;20032;-61
2021/06/22 05:40:42;;;;;;;0.10;0.10;;;;;;;43.66;18.78;98342.28;5114002;28;20039;-62
2021/06/22 05:43:08;;;;;;;0.30;0.30;;;;;;;43.85;18.32;98333.72;5113861;28;20101;-61
2021/06/22 05:45:35;;;;;;;0.20;0.20;;;;;;;43.86;18.08;98336.19;5095059;28;20031;-60
2021/06/22 05:48:01;;;;;;;0.82;0.57;;;;;;;44.13;17.69;98345.44;5112757;28;20497;-61
2021/06/22 05:50:27;;;;;;;0.40;0.40;;;;;;;44.02;17.79;98348.78;5113551;28;20118;-59
2021/06/22 05:52:54;;;;;;;0.32;0.32;;;;;;;42.46;19.17;98347.75;5092879;28;20031;-59
2021/06/22 05:55:23;;;;;;;0.80;0.52;;;;;;;41.66;20.02;98348.59;5093617;28;20044;-61
2021/06/22 05:57:52;;;;;;;0.30;0.30;;;;;;;41.31;20.00;98340.50;5074581;28;20028;-61
2021/06/22 06:00:21;;;;;;;1.40;0.40;;;;;;;41.52;19.76;98332.53;5092772;28;20103;-61
2021/06/22 06:02:49;;;;;;;1.00;0.30;;;;;;;40.95;19.92;98349.38;5093323;28;20028;-60
2021/06/22 06:05:15;;;;;;;0.20;0.20;;;;;;;39.45;21.48;98348.75;5092686;28;20059;-60
2021/06/22 06:07:41;;;;;;;0.20;0.20;;;;;;;37.78;23.12;98341.28;5092761;28;20056;-60
2021/06/22 06:10:08;;;;;;;0.32;0.32;;;;;;;36.35;24.17;98327.25;5092857;28;20428;-59
2021/06/22 06:12:34;;;;;;;0.10;0.10;;;;;;;35.20;25.14;98338.00;5074478;28;20397;-62
2021/06/22 06:15:00;;;;;;;0.30;0.30;;;;;;;34.16;25.93;98318.94;5088424;28;20036;-64
2021/06/22 06:17:26;;;;;;;0.38;0.38;;;;;;;33.32;26.33;98321.97;5092565;28;20394;-61
2021/06/22 06:19:52;;;;;;;0.40;0.40;;;;;;;32.45;27.27;98321.41;5092705;28;20062;-61
2021/06/22 06:22:19;;;;;;;0.35;0.10;;;;;;;31.64;27.84;98310.84;5093079;28;20473;-61
2021/06/22 06:24:45;;;;;;;0.63;0.40;;;;;;;30.97;28.31;98321.72;5093018;28;20111;-62
2021/06/22 06:27:16;;;;;;;0.63;0.35;;;;;;;30.23;28.86;98323.81;5092702;28;20035;-59
2021/06/22 06:32:11;;;;;;;0.30;0.30;;;;;;;29.10;29.78;98312.72;5092513;28;20408;-61
2021/06/22 06:34:37;;;;;;;1.08;0.68;;;;;;;28.72;29.88;98315.09;5074417;28;20035;-61
2021/06/22 06:37:03;;;;;;;0.10;0.10;;;;;;;28.66;29.43;98308.91;5092709;28;20481;-61
2021/06/22 06:39:29;;;;;;;0.32;0.32;;;;;;;28.67;29.42;98307.75;5074410;28;20078;-59
2021/06/22 06:41:55;;;;;;;0.32;0.32;;;;;;;28.50;29.51;98305.28;5096758;28;20031;-60
2021/06/22 06:44:21;;;;;;;1.35;0.40;;;;;;;28.35;29.58;98315.41;5077997;28;20119;-60
2021/06/22 06:46:46;;;;;;;0.10;0.10;;;;;;;28.07;29.70;98307.88;5096549;28;20032;-63
2021/06/22 06:49:12;;;;;;;0.57;0.52;;;;;;;27.84;29.63;98302.03;5096707;28;20036;-62
2021/06/22 06:51:38;;;;;;;0.40;0.40;;;;;;;27.59;30.11;98299.34;5096699;28;20028;-61
2021/06/22 06:54:07;;;;;;;0.20;0.20;;;;;;;27.42;30.48;98305.31;5096448;28;20493;-60
2021/06/22 06:56:38;;;;;;;0.10;0.10;;;;;;;27.25;30.43;98301.59;5095477;28;20032;-58
2021/06/22 06:59:04;;;;;;;0.80;0.60;;;;;;;27.05;30.54;98300.59;5095855;28;20031;-60
2021/06/22 07:01:30;;;;;;;0.32;0.32;;;;;;;27.01;30.36;98293.22;5095975;28;20040;-63
2021/06/22 07:03:56;;;;;;;0.20;0.20;;;;;;;27.03;30.27;98300.16;5095677;28;20073;-60
2021/06/22 07:06:22;;;;;;;0.35;0.22;;;;;;;27.02;30.52;98304.13;5095784;28;20059;-59
2021/06/22 07:08:48;;;;;;;0.08;0.08;;;;;;;26.91;30.61;98303.00;5060746;28;20083;-62
2021/06/22 07:11:16;;;;;;;0.35;0.20;;;;;;;26.79;30.47;98308.66;5078105;28;20496;-58
2021/06/22 07:13:42;;;;;;;0.75;0.75;;;;;;;26.77;30.62;98311.84;5096109;28;20039;-60
2021/06/22 07:16:20;;;;;;;0.63;0.63;;;;;;;26.67;30.93;98307.50;5078122;28;20035;-63
2021/06/22 07:18:47;;;;;;;0.20;0.20;;;;;;;26.54;30.76;98305.84;5076854;28;20028;-60
2021/06/22 07:21:13;;;;;;;0.10;0.10;;;;;;;26.49;30.97;98304.09;5061360;28;20028;-61
2021/06/22 07:23:39;;;;;;;0.35;0.35;;;;;;;26.36;31.19;98305.28;5094549;28;20031;-60
2021/06/22 07:26:05;;;;;;;0.50;0.50;;;;;;;26.33;31.51;98301.19;5092203;28;20032;-63
2021/06/22 07:28:31;;;;;;;0.30;0.30;;;;;;;26.34;31.15;98302.00;5057202;28;20024;-63
2021/06/22 07:30:57;;;;;;;0.30;0.30;;;;;;;26.26;31.65;98303.75;5092238;28;20127;-60
2021/06/22 07:33:23;;;;;;;0.25;0.17;;;;;;;26.18;31.52;98294.25;5094524;28;20573;-61
2021/06/22 07:35:49;;;;;;;0.20;0.20;;;;;;;26.27;31.60;98299.78;5095879;28;20028;-60
2021/06/22 07:38:15;;;;;;;0.32;0.32;;;;;;;26.39;31.44;98301.75;5095792;28;20036;-60
2021/06/22 07:40:41;;;;;;;2.17;0.30;;;;;;;26.43;31.39;98299.88;5095072;28;20074;-61
2021/06/22 07:43:07;;;;;;;0.22;0.22;;;;;;;26.55;30.96;98301.88;5095511;28;20032;-61
2021/06/22 07:45:33;;;;;;;0.40;0.40;;;;;;;26.68;31.30;98302.72;5076978;28;20174;-61
2021/06/22 07:47:59;;;;;;;0.30;0.30;;;;;;;26.72;30.85;98284.75;5095391;28;20059;-61
2021/06/22 07:50:27;;;;;;;0.63;0.45;;;;;;;26.77;31.08;98280.84;5095428;28;20032;-60
2021/06/22 07:52:53;;;;;;;4.55;0.47;;;;;;;26.78;31.08;98276.88;5076898;28;20025;-59
2021/06/22 07:55:18;;;;;;;0.10;0.10;;;;;;;26.77;31.27;98288.47;5076953;28;20035;-60
2021/06/22 07:57:49;;;;;;;1.58;0.50;;;;;;;26.69;31.58;98260.13;5095241;28;20119;-59
2021/06/22 08:02:57;;;;;;;0.75;0.73;;;;;;;26.47;32.08;98261.41;5095080;28;20024;-59
2021/06/22 08:05:23;;;;;;;0.20;0.20;;;;;;;26.39;32.12;98253.91;5076509;28;20127;-61
2021/06/22 08:07:49;;;;;;;0.52;0.52;;;;;;;26.45;32.33;98258.13;5094667;28;20109;-59
2021/06/22 08:10:15;;;;;;;0.15;0.15;;;;;;;26.53;31.94;98247.91;5076058;28;20020;-60
2021/06/22 08:12:40;;;;;;;0.28;0.10;;;;;;;26.55;31.86;98266.09;5094441;28;20142;-59
2021/06/22 08:15:07;;;;;;;0.10;0.10;;;;;;;26.58;32.30;98245.66;5095325;28;20024;-59
2021/06/22 08:17:33;;;;;;;0.38;0.28;;;;;;;26.65;32.15;98239.44;5094714;28;20038;-61
2021/06/22 08:19:59;;;;;;;0.08;0.08;;;;;;;26.71;31.77;98232.41;5094667;28;20452;-60
2021/06/22 08:22:25;;;;;;;0.63;0.40;;;;;;;26.82;32.04;98241.16;5095095;28;20090;-61
2021/06/22 08:24:50;;;;;;;0.20;0.20;;;;;;;26.90;31.60;98245.84;5072183;28;20036;-62
2021/06/22 08:27:18;;;;;;;0.22;0.20;;;;;;;26.81;32.24;98236.72;5093580;28;20032;-60
2021/06/22 08:29:43;;;;;;;0.05;0.05;;;;;;;26.71;32.27;98240.84;5092345;28;20028;-62
2021/06/22 08:32:09;;;;;;;1.65;0.60;;;;;;;26.67;32.45;98236.25;5074662;28;20378;-53
2021/06/22 08:34:35;;;;;;;0.65;0.38;;;;;;;26.85;32.22;98234.00;5089730;28;20036;-50
2021/06/22 08:37:01;;;;;;;0.20;0.20;;;;;;;27.04;32.27;98238.97;5094117;28;20070;-60
2021/06/22 08:39:27;;;;;;;0.10;0.10;;;;;;;27.54;31.26;98234.75;5093807;28;20034;-58
2021/06/22 08:41:55;;;;;;;0.10;0.10;;;;;;;27.93;31.12;98222.81;5094511;28;20031;-59
2021/06/22 08:44:23;;;;;;;0.35;0.35;;;;;;;28.08;31.07;98226.88;5094565;28;20038;-60
2021/06/22 08:46:50;;;;;;;0.20;0.20;;;;;;;28.25;30.84;98232.13;5074068;28;20043;-58
2021/06/22 08:49:16;;;;;;;0.20;0.20;;;;;;;28.45;30.94;98237.81;5092377;28;20027;-60
2021/06/22 08:51:42;;;;;;;0.32;0.20;;;;;;;28.48;30.86;98231.41;5092152;28;20493;-61
2021/06/22 08:54:09;;;;;;;0.17;0.17;;;;;;;28.51;30.81;98232.69;5092247;28;20055;-59
2021/06/22 08:56:35;;;;;;;0.20;0.20;;;;;;;28.39;31.26;98225.97;5074100;28;20388;-59
2021/06/22 08:59:02;;;;;;;0.25;0.25;;;;;;;28.35;31.20;98215.78;5092001;28;20153;-59
2021/06/22 09:01:28;;;;;;;0.98;0.08;;;;;;;28.31;31.38;98221.34;5092058;28;20028;-59
2021/06/22 09:03:53;;;;;;;0.10;0.10;;;;;;;28.27;31.68;98226.91;5091490;28;20028;-59
2021/06/22 09:06:24;;;;;;;0.10;0.10;;;;;;;28.20;31.82;98218.28;5091975;28;20025;-59
2021/06/22 09:08:55;;;;;;;0.08;0.08;;;;;;;28.15;31.74;98218.56;5089542;28;20102;-59
2021/06/22 09:11:22;;;;;;;0.20;0.20;;;;;;;28.10;31.85;98228.13;5091776;28;20039;-59
2021/06/22 09:13:59;;;;;;;0.10;0.10;;;;;;;27.99;32.48;98227.06;5091977;28;20035;-60
2021/06/22 09:16:25;;;;;;;0.08;0.08;;;;;;;27.85;32.49;98221.03;5073732;28;20524;-59
2021/06/22 09:18:52;;;;;;;0.10;0.10;;;;;;;27.85;32.76;98221.03;5073409;28;20027;-59
2021/06/22 09:21:22;;;;;;;0.32;0.32;;;;;;;28.04;32.14;98211.84;5091800;28;20036;-59
2021/06/22 09:23:52;;;;;;;0.30;0.25;;;;;;;28.29;32.16;98212.44;5089443;28;20036;-59
2021/06/22 09:26:21;;;;;;;1.05;0.90;;;;;;;28.37;31.96;98216.22;5091715;28;20039;-60
2021/06/22 09:28:48;;;;;;;0.22;0.22;;;;;;;28.30;31.94;98214.09;5088980;28;20027;-60
2021/06/22 09:31:22;;;;;;;0.40;0.40;;;;;;;28.25;32.30;98201.06;5092206;28;20068;-59
2021/06/22 09:33:58;;;;;;;0.15;0.15;;;;;;;28.24;32.19;98215.53;5093153;28;20047;-51
2021/06/22 09:36:29;;;;;;;0.90;0.40;;;;;;;27.95;32.84;98215.63;5093448;28;20118;-54
2021/06/22 09:38:59;;;;;;;0.30;0.30;;;;;;;27.28;34.34;98221.13;5092937;28;20035;-59
2021/06/22 09:41:34;;;;;;;0.20;0.20;;;;;;;26.84;35.28;98223.91;5093791;28;20051;-50
2021/06/22 09:44:09;;;;;;;1.33;1.10;;;;;;;26.89;35.32;98221.66;5074809;28;20035;-50
2021/06/22 09:46:34;;;;;;;0.13;0.13;;;;;;;26.99;34.84;98225.97;5093007;28;20040;-59
2021/06/22 09:49:01;;;;;;;0.40;0.35;;;;;;;27.21;34.79;98216.13;5093297;28;20024;-60
2021/06/22 09:51:34;;;;;;;0.17;0.17;;;;;;;27.67;33.92;98209.28;5092738;28;20036;-60
2021/06/22 09:54:17;;;;;;;0.90;0.50;;;;;;;28.21;33.35;98211.47;5092930;28;20028;-59
2021/06/22 09:57:04;;;;;;;0.45;0.45;;;;;;;28.84;32.86;98209.63;5093365;28;20044;-60
2021/06/22 09:59:33;;;;;;;0.10;0.10;;;;;;;29.29;31.95;98199.66;5077391;28;20036;-62
2021/06/22 10:02:07;;;;;;;0.32;0.32;;;;;;;29.47;32.03;98199.16;5092306;28;20370;-60
2021/06/22 10:04:33;;;;;;;0.17;0.17;;;;;;;29.63;31.75;98201.88;5069995;28;20052;-59
2021/06/22 10:07:00;;;;;;;0.10;0.10;;;;;;;29.88;31.75;98197.47;5092576;28;20067;-61
2021/06/22 10:09:28;;;;;;;1.15;0.30;;;;;;;30.06;31.50;98199.78;5092851;28;20036;-60
2021/06/22 10:12:12;;;;;;;0.20;0.20;;;;;;;30.08;31.24;98197.41;5093097;28;20508;-59
2021/06/22 10:14:44;;;;;;;0.80;0.20;;;;;;;29.98;31.67;98196.03;5092045;28;20031;-60
2021/06/22 10:17:18;;;;;;;0.28;0.28;;;;;;;29.97;31.92;98190.75;5092838;28;20044;-59
2021/06/22 10:19:46;;;;;;;0.15;0.15;;;;;;;30.02;31.92;98196.91;5093274;28;20028;-60
2021/06/22 10:22:16;;;;;;;0.20;0.20;;;;;;;29.77;32.23;98189.97;5092415;28;20043;-59
2021/06/22 10:24:46;;;;;;;0.15;0.15;;;;;;;29.51;32.64;98188.72;5092323;28;20450;-61
2021/06/22 10:27:19;;;;;;;0.00;0.00;;;;;;;29.04;33.25;98192.66;5092221;28;20181;-60
2021/06/22 10:29:47;;;;;;;2.63;0.40;;;;;;;28.62;33.83;98192.25;5092937;28;20036;-58
2021/06/22 10:32:14;;;;;;;0.10;0.10;;;;;;;28.42;34.05;98207.50;5092688;28;20084;-59
2021/06/22 10:34:46;;;;;;;0.17;0.17;;;;;;;28.21;34.28;98199.31;5092127;28;20056;-60
2021/06/22 10:37:33;;;;;;;0.10;0.10;;;;;;;28.15;34.52;98201.66;5092741;28;20067;-60
2021/06/22 10:40:24;;;;;;;0.30;0.30;;;;;;;28.21;34.14;98193.69;5088898;28;20085;-61
2021/06/22 10:42:52;;;;;;;0.20;0.20;;;;;;;28.30;34.04;98200.78;5092221;28;20463;-51
2021/06/22 10:45:19;;;;;;;0.15;0.15;;;;;;;28.24;34.28;98195.78;5092158;28;20134;-52
2021/06/22 10:47:47;;;;;;;0.22;0.22;;;;;;;28.12;34.39;98196.72;5092742;28;20035;-48
2021/06/22 10:50:14;;;;;;;0.20;0.20;;;;;;;27.89;34.44;98191.72;5092104;28;20025;-60
2021/06/22 10:52:43;;;;;;;0.65;0.47;;;;;;;27.84;34.53;98197.66;5091873;28;20046;-55
2021/06/22 10:55:44;;;;;;;0.30;0.30;;;;;;;27.74;34.93;98199.00;5092424;28;20028;-58
2021/06/22 10:58:11;;;;;;;0.22;0.22;;;;;;;27.55;35.00;98202.56;5092058;28;20409;-59
2021/06/22 11:00:40;;;;;;;0.17;0.17;;;;;;;27.40;35.36;98195.72;5092776;28;20032;-59
2021/06/22 11:03:10;;;;;;;0.10;0.10;;;;;;;27.40;35.29;98186.44;5092058;28;20042;-59
2021/06/22 11:05:41;;;;;;;0.90;0.40;;;;;;;27.32;35.02;98193.03;5092599;28;20107;-60
2021/06/22 11:08:13;;;;;;;0.20;0.20;;;;;;;27.25;35.21;98174.78;5073707;28;20075;-60
2021/06/22 11:10:59;;;;;;;0.35;0.35;;;;;;;27.19;35.56;98187.47;5092024;28;20028;-60
2021/06/22 11:13:41;;;;;;;0.35;0.35;;;;;;;27.13;35.26;98191.72;5010245;28;20128;-60
2021/06/22 11:16:19;;;;;;;2.17;0.82;;;;;;;27.13;35.34;98188.91;4994453;28;20404;-60
2021/06/22 11:18:54;;;;;;;0.10;0.10;;;;;;;27.13;35.17;98180.47;5010741;28;20453;-58
2021/06/22 11:21:24;;;;;;;1.77;0.28;;;;;;;27.10;35.61;98190.47;5009843;28;20066;-54
2021/06/22 11:24:09;;;;;;;0.10;0.10;;;;;;;27.10;35.17;98184.84;5010411;28;20046;-48
2021/06/22 11:26:41;;;;;;;0.52;0.52;;;;;;;27.13;35.38;98182.47;5011719;28;20629;-52
2021/06/22 11:29:09;;;;;;;0.05;0.05;;;;;;;27.22;35.12;98186.78;4996849;28;20061;-58
2021/06/22 11:31:41;;;;;;;0.38;0.38;;;;;;;27.27;35.22;98189.31;5013443;28;20041;-56
2021/06/22 11:34:17;;;;;;;0.15;0.15;;;;;;;27.36;35.07;98182.72;5013264;28;20037;-60
2021/06/22 11:36:45;;;;;;;0.30;0.30;;;;;;;27.48;35.02;98185.44;5013583;28;20087;-48
2021/06/22 11:39:18;;;;;;;0.10;0.10;;;;;;;27.58;34.53;98178.47;5013173;28;20492;-50
2021/06/22 11:42:02;;;;;;;;;;;;;;;27.66;34.56;98188.72;5013547;28;20515;-50